createdAt,value
2022-07-28T00:01:59.842Z,100474.38
2022-07-28T00:04:29.730Z,100483.28
2022-07-28T00:06:57.528Z,100486.84
2022-07-28T00:09:25.305Z,100480.97
2022-07-28T00:11:54.568Z,100479.25
2022-07-28T00:14:23.085Z,100477.59
2022-07-28T00:16:51.047Z,100473.88
2022-07-28T00:19:19.176Z,100479.94
2022-07-28T00:21:48.276Z,100473.88
2022-07-28T00:24:16.438Z,100466.97
2022-07-28T00:26:46.601Z,100469.16
2022-07-28T00:29:14.674Z,100473.06
2022-07-28T00:31:42.589Z,100470.38
2022-07-28T00:34:10.769Z,100477.81
2022-07-28T00:36:38.901Z,100485.25
2022-07-28T00:39:08.086Z,100478.66
2022-07-28T00:41:36.497Z,100487.28
2022-07-28T00:44:06.824Z,100477.66
2022-07-28T00:46:34.630Z,100476.81
2022-07-28T00:49:02.642Z,100474.13
2022-07-28T00:51:30.844Z,100470.41
2022-07-28T00:53:59.234Z,100470.63
2022-07-28T00:56:28.406Z,100467.94
2022-07-28T00:58:56.216Z,100468.94
2022-07-28T01:01:24.295Z,100469.97
2022-07-28T01:03:55.968Z,100466.41
2022-07-28T01:06:41.000Z,100466.41
2022-07-28T01:09:18.119Z,100459.00
2022-07-28T01:11:58.695Z,100454.63
2022-07-28T01:14:35.452Z,100450.75
2022-07-28T01:17:12.745Z,100443.19
2022-07-28T01:19:47.435Z,100443.88
2022-07-28T01:22:24.046Z,100439.31
2022-07-28T01:25:07.162Z,100442.84
2022-07-28T01:27:50.433Z,100440.63
2022-07-28T01:30:33.780Z,100440.63
2022-07-28T01:33:06.102Z,100435.41
2022-07-28T01:35:41.880Z,100433.38
2022-07-28T01:38:11.573Z,100440.97
2022-07-28T01:40:41.948Z,100447.03
2022-07-28T01:43:15.395Z,100442.81
2022-07-28T01:45:46.220Z,100448.38
2022-07-28T01:48:16.165Z,100448.38
2022-07-28T01:50:45.245Z,100442.97
2022-07-28T01:53:15.557Z,100429.66
2022-07-28T01:55:45.173Z,100433.56
2022-07-28T01:58:14.719Z,100427.50
2022-07-28T02:00:45.206Z,100434.75
2022-07-28T02:03:14.228Z,100425.47
2022-07-28T02:05:44.652Z,100420.25
2022-07-28T02:08:13.917Z,100429.34
2022-07-28T02:10:43.646Z,100424.13
2022-07-28T02:13:12.955Z,100422.09
2022-07-28T02:15:42.057Z,100414.19
2022-07-28T02:18:12.422Z,100415.38
2022-07-28T02:20:41.412Z,100415.38
2022-07-28T02:23:09.863Z,100413.19
2022-07-28T02:25:40.281Z,100409.16
2022-07-28T02:28:10.534Z,100409.84
2022-07-28T02:30:46.430Z,100404.94
2022-07-28T02:33:32.302Z,100399.22
2022-07-28T02:36:10.821Z,100393.69
2022-07-28T02:38:46.815Z,100395.69
2022-07-28T02:41:18.634Z,100393.47
2022-07-28T02:43:50.151Z,100394.00
2022-07-28T02:46:30.153Z,100388.63
2022-07-28T02:49:07.525Z,100388.78
2022-07-28T02:51:38.096Z,100382.56
2022-07-28T02:54:06.633Z,100381.22
2022-07-28T02:56:35.733Z,100383.91
2022-07-28T02:59:04.164Z,100381.38
2022-07-28T03:01:33.770Z,100374.47
2022-07-28T03:04:03.368Z,100375.16
2022-07-28T03:06:31.110Z,100372.97
2022-07-28T03:08:59.160Z,100374.78
2022-07-28T03:11:30.003Z,100383.03
2022-07-28T03:13:57.890Z,100379.50
2022-07-28T03:16:25.694Z,100383.38
2022-07-28T03:18:53.547Z,100390.44
2022-07-28T03:21:22.605Z,100400.19
2022-07-28T03:23:52.592Z,100394.81
2022-07-28T03:26:31.680Z,100400.72
2022-07-28T03:29:01.398Z,100398.50
2022-07-28T03:31:30.261Z,100394.97
2022-07-28T03:33:58.251Z,100394.81
2022-07-28T03:36:35.858Z,100393.31
2022-07-28T03:39:08.667Z,100386.91
2022-07-28T03:41:37.790Z,100385.38
2022-07-28T03:44:06.559Z,100398.16
2022-07-28T03:46:34.358Z,100395.31
2022-07-28T03:49:02.141Z,100392.78
2022-07-28T03:51:31.288Z,100390.41
2022-07-28T03:53:59.015Z,100389.56
2022-07-28T03:56:26.793Z,100394.94
2022-07-28T03:58:54.632Z,100395.78
2022-07-28T04:01:22.422Z,100386.72
2022-07-28T04:03:50.250Z,100392.56
2022-07-28T04:06:18.198Z,100393.44
2022-07-28T04:08:47.280Z,100379.63
2022-07-28T04:11:15.172Z,100388.38
2022-07-28T04:13:42.951Z,100391.09
2022-07-28T04:16:10.710Z,100388.38
2022-07-28T04:18:38.446Z,100390.09
2022-07-28T04:21:07.617Z,100386.22
2022-07-28T04:23:35.337Z,100395.31
2022-07-28T04:26:04.634Z,100392.94
2022-07-28T04:28:32.658Z,100385.03
2022-07-28T04:31:00.497Z,100379.31
2022-07-28T04:33:28.295Z,100378.16
2022-07-28T04:35:56.011Z,100379.66
2022-07-28T04:38:23.806Z,100381.19
2022-07-28T04:40:51.527Z,100384.38
2022-07-28T04:43:22.976Z,100373.97
2022-07-28T04:45:53.600Z,100372.94
2022-07-28T04:48:22.283Z,100374.63
2022-07-28T04:50:51.324Z,100373.97
2022-07-28T04:53:19.324Z,100380.19
2022-07-28T04:55:47.120Z,100387.78
2022-07-28T04:58:18.343Z,100391.13
2022-07-28T05:00:50.325Z,100399.69
2022-07-28T05:03:18.846Z,100387.25
2022-07-28T05:05:47.124Z,100387.78
2022-07-28T05:08:19.056Z,100389.94
2022-07-28T05:10:46.794Z,100391.97
2022-07-28T05:13:14.540Z,100389.13
2022-07-28T05:15:42.222Z,100388.78
2022-07-28T05:18:11.323Z,100392.31
2022-07-28T05:20:39.110Z,100387.09
2022-07-28T05:23:06.853Z,100385.25
2022-07-28T05:25:34.640Z,100383.75
2022-07-28T05:28:02.447Z,100382.22
2022-07-28T05:30:30.766Z,100392.16
2022-07-28T05:33:01.329Z,100394.34
2022-07-28T05:35:30.667Z,100389.63
2022-07-28T05:37:58.490Z,100389.47
2022-07-28T05:40:27.151Z,100386.41
2022-07-28T05:42:54.928Z,100380.69
2022-07-28T05:45:22.781Z,100387.44
2022-07-28T05:47:53.569Z,100382.00
2022-07-28T05:50:24.129Z,100383.84
2022-07-28T05:52:53.268Z,100382.50
2022-07-28T05:55:22.291Z,100377.41
2022-07-28T05:57:50.885Z,100386.28
2022-07-28T06:00:20.346Z,100389.13
2022-07-28T06:02:50.059Z,100392.31
2022-07-28T06:05:18.702Z,100399.88
2022-07-28T06:07:47.145Z,100394.59
2022-07-28T06:10:18.553Z,100393.28
2022-07-28T06:12:48.607Z,100398.97
2022-07-28T06:15:19.040Z,100397.13
2022-07-28T06:17:46.786Z,100402.47
2022-07-28T06:20:15.632Z,100389.75
2022-07-28T06:22:44.639Z,100399.13
2022-07-28T06:25:18.051Z,100396.03
2022-07-28T06:27:47.018Z,100388.91
2022-07-28T06:30:15.944Z,100391.22
2022-07-28T06:32:43.853Z,100396.47
2022-07-28T06:35:14.732Z,100405.06
2022-07-28T06:37:42.885Z,100393.34
2022-07-28T06:40:12.815Z,100392.13
2022-07-28T06:42:43.138Z,100394.94
2022-07-28T06:45:20.879Z,100389.13
2022-07-28T06:47:49.677Z,100399.06
2022-07-28T06:50:25.260Z,100393.25
2022-07-28T06:52:55.086Z,100401.50
2022-07-28T06:55:23.090Z,100399.56
2022-07-28T06:57:52.166Z,100403.38
2022-07-28T07:00:20.201Z,100398.47
2022-07-28T07:02:47.967Z,100404.78
2022-07-28T07:05:15.778Z,100396.06
2022-07-28T07:07:43.948Z,100396.44
2022-07-28T07:10:12.663Z,100390.28
2022-07-28T07:12:40.744Z,100389.78
2022-07-28T07:15:11.785Z,100392.69
2022-07-28T07:17:39.621Z,100398.19
2022-07-28T07:20:09.130Z,100389.13
2022-07-28T07:22:42.446Z,100384.34
2022-07-28T07:25:10.990Z,100377.72
2022-07-28T07:27:39.380Z,100391.81
2022-07-28T07:30:09.093Z,100383.94
2022-07-28T07:32:38.780Z,100387.19
2022-07-28T07:35:08.056Z,100381.63
2022-07-28T07:37:39.118Z,100381.31
2022-07-28T07:40:09.582Z,100382.06
2022-07-28T07:42:37.676Z,100385.31
2022-07-28T07:45:06.553Z,100386.63
2022-07-28T07:47:34.464Z,100375.22
2022-07-28T07:50:04.570Z,100373.22
2022-07-28T07:52:32.700Z,100372.16
2022-07-28T07:55:00.548Z,100377.84
2022-07-28T07:57:29.796Z,100373.31
2022-07-28T07:59:57.714Z,100376.72
2022-07-28T08:02:25.719Z,100377.81
2022-07-28T08:04:53.557Z,100377.84
2022-07-28T08:07:22.782Z,100371.44
2022-07-28T08:09:51.594Z,100370.94
2022-07-28T08:12:25.188Z,100367.44
2022-07-28T08:14:53.584Z,100372.91
2022-07-28T08:17:25.681Z,100379.19
2022-07-28T08:19:54.336Z,100370.22
2022-07-28T08:22:23.886Z,100373.19
2022-07-28T08:24:52.203Z,100363.63
2022-07-28T08:27:20.145Z,100365.13
2022-07-28T08:29:48.144Z,100357.69
2022-07-28T08:32:16.028Z,100357.31
2022-07-28T08:34:43.891Z,100355.44
2022-07-28T08:37:11.913Z,100352.75
2022-07-28T08:39:41.131Z,100360.69
2022-07-28T08:42:14.005Z,100357.13
2022-07-28T08:44:48.893Z,100359.59
2022-07-28T08:47:17.507Z,100353.72
2022-07-28T08:49:45.753Z,100354.78
2022-07-28T08:52:15.510Z,100352.69
2022-07-28T08:54:46.994Z,100350.72
2022-07-28T08:57:21.639Z,100349.66
2022-07-28T08:59:51.294Z,100334.31
2022-07-28T09:02:20.127Z,100342.59
2022-07-28T09:04:48.650Z,100337.34
2022-07-28T09:07:17.116Z,100337.59
2022-07-28T09:09:49.955Z,100333.72
2022-07-28T09:12:18.337Z,100337.97
2022-07-28T09:14:46.873Z,100331.09
2022-07-28T09:17:14.780Z,100331.56
2022-07-28T09:19:42.611Z,100334.28
2022-07-28T09:22:10.407Z,100327.00
2022-07-28T09:24:39.840Z,100333.22
2022-07-28T09:27:10.888Z,100326.69
2022-07-28T09:29:41.222Z,100323.59
2022-07-28T09:32:09.382Z,100328.44
2022-07-28T09:34:42.469Z,100325.44
2022-07-28T09:37:24.838Z,100321.91
2022-07-28T09:39:58.900Z,100314.97
2022-07-28T09:42:46.826Z,100312.91
2022-07-28T09:45:23.758Z,100309.59
2022-07-28T09:48:10.123Z,100311.34
2022-07-28T09:50:38.825Z,100309.44
2022-07-28T09:53:23.629Z,100306.47
2022-07-28T09:56:00.905Z,100307.19
2022-07-28T09:58:30.840Z,100313.72
2022-07-28T10:01:09.359Z,100300.66
2022-07-28T10:03:41.161Z,100302.19
2022-07-28T10:06:12.742Z,100298.88
2022-07-28T10:08:42.234Z,100290.66
2022-07-28T10:11:12.626Z,100283.53
2022-07-28T10:13:56.175Z,100285.31
2022-07-28T10:16:25.759Z,100280.91
2022-07-28T10:18:53.793Z,100272.44
2022-07-28T10:21:25.969Z,100265.28
2022-07-28T10:23:54.506Z,100258.75
2022-07-28T10:26:27.009Z,100257.47
2022-07-28T10:28:57.226Z,100258.44
2022-07-28T10:31:35.986Z,100253.69
2022-07-28T10:34:06.252Z,100258.31
2022-07-28T10:36:35.210Z,100249.72
2022-07-28T10:39:13.526Z,100246.88
2022-07-28T10:41:42.706Z,100244.72
2022-07-28T10:44:19.018Z,100239.75
2022-07-28T10:46:47.555Z,100237.59
2022-07-28T10:49:16.021Z,100245.56
2022-07-28T10:52:06.381Z,100234.25
2022-07-28T10:54:43.785Z,100237.19
2022-07-28T10:57:14.050Z,100234.88
2022-07-28T11:00:02.701Z,100236.09
2022-07-28T11:02:45.212Z,100228.94
2022-07-28T11:05:36.397Z,100225.78
2022-07-28T11:08:09.375Z,100220.66
2022-07-28T11:10:48.533Z,100218.78
2022-07-28T11:13:32.961Z,100205.19
2022-07-28T11:16:21.949Z,100214.91
2022-07-28T11:19:08.074Z,100219.81
2022-07-28T11:22:22.477Z,100209.28
2022-07-28T11:25:21.072Z,100198.44
2022-07-28T11:28:05.906Z,100196.59
2022-07-28T11:30:54.260Z,100198.78
2022-07-28T11:33:24.941Z,100184.69
2022-07-28T11:36:00.576Z,100185.19
2022-07-28T11:38:30.121Z,100176.72
2022-07-28T11:40:59.491Z,100179.94
2022-07-28T11:43:39.431Z,100182.38
2022-07-28T11:46:24.904Z,100176.88
2022-07-28T11:49:21.079Z,100174.94
2022-07-28T11:52:15.193Z,100169.75
2022-07-28T11:54:53.224Z,100187.31
2022-07-28T11:57:24.236Z,100181.91
2022-07-28T11:59:55.219Z,100168.13
2022-07-28T12:02:26.055Z,100167.91
2022-07-28T12:05:10.760Z,100160.19
2022-07-28T12:07:41.610Z,100162.13
2022-07-28T12:13:27.727Z,100163.81
2022-07-28T12:15:55.659Z,100163.19
2022-07-28T12:18:24.905Z,100161.19
2022-07-28T12:20:55.430Z,100151.63
2022-07-28T12:23:38.799Z,100154.38
2022-07-28T12:26:13.422Z,100157.13
2022-07-28T12:28:50.609Z,100148.94
2022-07-28T12:31:18.419Z,100144.00
2022-07-28T12:33:46.296Z,100142.41
2022-07-28T12:36:18.866Z,100147.94
2022-07-28T12:38:47.191Z,100146.41
2022-07-28T12:41:16.288Z,100139.72
2022-07-28T12:43:53.142Z,100138.59
2022-07-28T12:46:22.980Z,100127.25
2022-07-28T12:48:57.382Z,100140.69
2022-07-28T12:51:34.311Z,100130.78
2022-07-28T12:54:02.268Z,100134.69
2022-07-28T12:56:30.126Z,100135.91
2022-07-28T12:59:05.938Z,100130.19
2022-07-28T13:01:47.893Z,100135.72
2022-07-28T13:04:16.234Z,100126.69
2022-07-28T13:06:56.321Z,100126.97
2022-07-28T13:09:32.797Z,100126.38
2022-07-28T13:12:03.441Z,100127.19
2022-07-28T13:14:40.761Z,100128.47
2022-07-28T13:17:08.628Z,100129.19
2022-07-28T13:19:36.447Z,100122.28
2022-07-28T13:22:09.212Z,100123.56
2022-07-28T13:24:37.303Z,100127.84
2022-07-28T13:27:06.836Z,100117.63
2022-07-28T13:29:35.803Z,100116.97
2022-07-28T13:32:05.570Z,100116.91
2022-07-28T13:34:33.347Z,100110.28
2022-07-28T13:37:01.158Z,100111.34
2022-07-28T13:39:30.314Z,100105.47
2022-07-28T13:41:59.266Z,100105.63
2022-07-28T13:44:27.611Z,100107.50
2022-07-28T13:46:55.630Z,100107.91
2022-07-28T13:49:24.329Z,100099.69
2022-07-28T13:51:52.312Z,100095.44
2022-07-28T13:54:21.416Z,100094.28
2022-07-28T13:56:51.118Z,100094.16
2022-07-28T13:59:19.074Z,100092.78
2022-07-28T14:01:49.783Z,100094.13
2022-07-28T14:04:21.646Z,100094.28
2022-07-28T14:06:49.814Z,100089.59
2022-07-28T14:09:18.031Z,100084.38
2022-07-28T14:11:50.171Z,100077.38
2022-07-28T14:14:24.684Z,100076.31
2022-07-28T14:16:54.373Z,100079.38
2022-07-28T14:19:23.439Z,100071.41
2022-07-28T14:22:12.732Z,100063.63
2022-07-28T14:24:42.092Z,100072.34
2022-07-28T14:27:10.993Z,100067.59
2022-07-28T14:29:40.493Z,100069.38
2022-07-28T14:32:08.546Z,100058.94
2022-07-28T14:34:36.712Z,100063.56
2022-07-28T14:37:08.895Z,100064.59
2022-07-28T14:39:37.761Z,100061.25
2022-07-28T14:42:05.819Z,100058.03
2022-07-28T14:44:34.055Z,100054.44
2022-07-28T14:47:03.333Z,100046.81
2022-07-28T14:49:31.363Z,100055.91
2022-07-28T14:51:59.405Z,100064.00
2022-07-28T14:54:27.828Z,100066.41
2022-07-28T14:56:55.840Z,100074.06
2022-07-28T14:59:23.614Z,100073.09
2022-07-28T15:01:51.473Z,100074.69
2022-07-28T15:04:20.578Z,100071.59
2022-07-28T15:06:48.446Z,100061.97
2022-07-28T15:09:16.508Z,100066.06
2022-07-28T15:11:46.279Z,100067.66
2022-07-28T15:14:14.879Z,100057.19
2022-07-28T15:16:46.477Z,100045.97
2022-07-28T15:19:14.357Z,100052.03
2022-07-28T15:21:45.741Z,100048.28
2022-07-28T15:24:14.673Z,100054.16
2022-07-28T15:26:42.630Z,100049.81
2022-07-28T15:29:10.484Z,100050.16
2022-07-28T15:31:39.718Z,100052.41
2022-07-28T15:34:07.671Z,100044.00
2022-07-28T15:36:37.297Z,100045.38
2022-07-28T15:39:08.966Z,100042.66
2022-07-28T15:41:37.130Z,100047.06
2022-07-28T15:44:07.791Z,100036.91
2022-07-28T15:46:38.565Z,100042.16
2022-07-28T15:49:08.683Z,100036.13
2022-07-28T15:51:37.677Z,100035.31
2022-07-28T15:54:07.733Z,100035.31
2022-07-28T15:56:36.812Z,100033.41
2022-07-28T15:59:07.379Z,100021.09
2022-07-28T16:01:39.813Z,100020.25
2022-07-28T16:04:11.311Z,100024.91
2022-07-28T16:06:56.619Z,100018.84
2022-07-28T16:09:45.911Z,100021.09
2022-07-28T16:12:16.322Z,100018.94
2022-07-28T16:14:44.309Z,100016.13
2022-07-28T16:17:15.203Z,100012.22
2022-07-28T16:19:49.641Z,100010.50
2022-07-28T16:22:18.248Z,100001.47
2022-07-28T16:24:47.935Z,99998.91
2022-07-28T16:27:15.826Z,99997.41
2022-07-28T16:29:43.631Z,99988.22
2022-07-28T16:32:11.505Z,99990.31
2022-07-28T16:34:39.453Z,99995.66
2022-07-28T16:37:07.247Z,99981.91
2022-07-28T16:39:35.048Z,99983.41
2022-07-28T16:42:04.463Z,99986.09
2022-07-28T16:44:32.236Z,99989.00
2022-07-28T16:47:00.035Z,99983.16
2022-07-28T16:49:27.818Z,99976.78
2022-07-28T16:51:56.119Z,99983.00
2022-07-28T16:54:24.012Z,99986.59
2022-07-28T16:56:51.808Z,99995.88
2022-07-28T16:59:20.973Z,100001.00
2022-07-28T17:01:48.889Z,99995.78
2022-07-28T17:04:17.370Z,99999.28
2022-07-28T17:06:45.700Z,99981.44
2022-07-28T17:09:15.846Z,99993.47
2022-07-28T17:11:44.324Z,100001.94
2022-07-28T17:14:12.896Z,100002.09
2022-07-28T17:16:42.338Z,99997.38
2022-07-28T17:19:10.077Z,100006.56
2022-07-28T17:21:37.884Z,100008.16
2022-07-28T17:24:06.753Z,100005.66
2022-07-28T17:29:24.552Z,100011.28
2022-07-28T17:31:53.959Z,100007.41
2022-07-28T17:34:21.712Z,100011.41
2022-07-28T17:36:50.460Z,100006.69
2022-07-28T17:39:18.284Z,100009.41
2022-07-28T17:41:46.179Z,100009.91
2022-07-28T17:44:14.816Z,100004.34
2022-07-28T17:46:43.023Z,100006.16
2022-07-28T17:49:12.425Z,100009.13
2022-07-28T17:51:41.735Z,100014.50
2022-07-28T17:54:09.869Z,100016.31
2022-07-28T17:56:38.917Z,100017.28
2022-07-28T17:59:08.058Z,100018.84
2022-07-28T18:01:36.151Z,100019.47
2022-07-28T18:04:04.078Z,100022.38
2022-07-28T18:06:35.545Z,100022.00
2022-07-28T18:09:07.212Z,100023.53
2022-07-28T18:11:37.556Z,100030.28
2022-07-28T18:14:23.142Z,100034.59
2022-07-28T18:16:50.915Z,100037.59
2022-07-28T18:19:18.671Z,100041.88
2022-07-28T18:21:47.809Z,100043.16
2022-07-28T18:24:15.904Z,100040.34
2022-07-28T18:26:45.979Z,100041.38
2022-07-28T18:29:14.568Z,100038.31
2022-07-28T18:31:46.641Z,100028.69
2022-07-28T18:34:15.630Z,100034.66
2022-07-28T18:36:46.907Z,100032.38
2022-07-28T18:39:14.829Z,100033.94
2022-07-28T18:41:47.098Z,100027.88
2022-07-28T18:44:19.686Z,100029.41
2022-07-28T18:46:48.362Z,100025.50
2022-07-28T18:49:16.670Z,100026.69
2022-07-28T18:51:45.751Z,100028.25
2022-07-28T18:54:20.058Z,100026.44
2022-07-28T18:56:52.767Z,100024.06
2022-07-28T18:59:20.542Z,100020.38
2022-07-28T19:01:48.324Z,100023.22
2022-07-28T19:04:16.687Z,100024.38
2022-07-28T19:06:44.728Z,100022.00
2022-07-28T19:09:12.499Z,100021.28
2022-07-28T19:11:45.914Z,100017.34
2022-07-28T19:14:16.642Z,100019.09
2022-07-28T19:16:45.067Z,100033.91
2022-07-28T19:19:12.931Z,100033.56
2022-07-28T19:21:43.394Z,100038.03
2022-07-28T19:24:11.708Z,100043.81
2022-07-28T19:26:45.889Z,100050.19
2022-07-28T19:29:14.018Z,100047.09
2022-07-28T19:31:42.373Z,100053.00
2022-07-28T19:34:10.383Z,100049.66
2022-07-28T19:36:40.367Z,100058.31
2022-07-28T19:39:08.637Z,100063.00
2022-07-28T19:41:36.482Z,100067.47
2022-07-28T19:44:06.099Z,100067.09
2022-07-28T19:46:33.954Z,100061.97
2022-07-28T19:49:03.844Z,100064.56
2022-07-28T19:51:31.787Z,100063.56
2022-07-28T19:54:00.348Z,100072.41
2022-07-28T19:56:31.813Z,100072.00
2022-07-28T19:59:01.186Z,100074.19
2022-07-28T20:01:30.849Z,100076.38
2022-07-28T20:04:01.186Z,100080.44
2022-07-28T20:06:32.460Z,100082.84
2022-07-28T20:09:00.536Z,100086.69
2022-07-28T20:11:28.750Z,100091.16
2022-07-28T20:13:56.533Z,100095.22
2022-07-28T20:16:24.666Z,100102.34
2022-07-28T20:18:54.120Z,100103.22
2022-07-28T20:21:24.041Z,100108.47
2022-07-28T20:23:53.682Z,100109.97
2022-07-28T20:26:23.508Z,100112.53
2022-07-28T20:28:53.000Z,100114.25
2022-07-28T20:31:21.319Z,100113.03
2022-07-28T20:33:49.336Z,100119.34
2022-07-28T20:36:18.505Z,100121.03
2022-07-28T20:38:46.362Z,100113.16
2022-07-28T20:41:14.127Z,100126.34
2022-07-28T20:43:41.815Z,100132.44
2022-07-28T20:46:09.658Z,100128.69
2022-07-28T20:48:37.617Z,100129.34
2022-07-28T20:51:05.433Z,100135.63
2022-07-28T20:53:34.629Z,100132.50
2022-07-28T20:56:02.422Z,100135.00
2022-07-28T20:58:32.142Z,100143.00
2022-07-28T21:00:59.989Z,100142.78
2022-07-28T21:03:27.808Z,100137.19
2022-07-28T21:05:55.605Z,100145.13
2022-07-28T21:08:24.228Z,100145.16
2022-07-28T21:10:55.228Z,100148.72
2022-07-28T21:13:26.867Z,100145.38
2022-07-28T21:15:54.642Z,100143.09
2022-07-28T21:18:22.449Z,100153.75
2022-07-28T21:20:51.630Z,100151.06
2022-07-28T21:23:19.364Z,100148.56
2022-07-28T21:25:48.585Z,100155.25
2022-07-28T21:28:35.263Z,100148.75
2022-07-28T21:31:03.017Z,100148.97
2022-07-28T21:33:30.924Z,100160.25
2022-07-28T21:35:58.741Z,100159.00
2022-07-28T21:38:26.532Z,100154.19
2022-07-28T21:40:54.281Z,100162.97
2022-07-28T21:43:23.422Z,100153.97
2022-07-28T21:45:51.249Z,100156.47
2022-07-28T21:48:23.206Z,100158.56
2022-07-28T21:50:50.953Z,100158.38
2022-07-28T21:53:19.321Z,100160.88
2022-07-28T21:55:48.612Z,100162.75
2022-07-28T21:58:16.654Z,100154.59
2022-07-28T22:00:45.925Z,100155.44
2022-07-28T22:03:13.646Z,100153.16
2022-07-28T22:05:41.599Z,100155.88
2022-07-28T22:08:09.458Z,100151.88
2022-07-28T22:10:37.452Z,100151.47
2022-07-28T22:13:05.276Z,100153.34
2022-07-28T22:15:35.105Z,100156.91
2022-07-28T22:18:05.705Z,100159.63
2022-07-28T22:20:33.584Z,100163.16
2022-07-28T22:23:01.389Z,100162.34
2022-07-28T22:25:29.370Z,100166.31
2022-07-28T22:27:57.238Z,100167.75
2022-07-28T22:30:25.113Z,100169.03
2022-07-28T22:32:53.015Z,100167.75
2022-07-28T22:35:22.349Z,100171.53
2022-07-28T22:37:50.855Z,100165.50
2022-07-28T22:40:18.938Z,100170.91
2022-07-28T22:42:48.331Z,100180.09
2022-07-28T22:45:16.588Z,100178.41
2022-07-28T22:48:04.717Z,100182.81
2022-07-28T22:50:33.990Z,100169.63
2022-07-28T22:53:01.823Z,100186.34
2022-07-28T22:55:29.674Z,100187.59
2022-07-28T22:58:00.706Z,100198.44
2022-07-28T23:00:31.200Z,100192.00
2022-07-28T23:02:59.042Z,100181.09
2022-07-28T23:05:26.888Z,100183.00
2022-07-28T23:07:57.579Z,100176.91
2022-07-28T23:10:26.993Z,100178.38
2022-07-28T23:12:58.397Z,100173.13
2022-07-28T23:15:39.371Z,100177.94
2022-07-28T23:18:08.636Z,100181.91
2022-07-28T23:20:36.535Z,100182.09
2022-07-28T23:23:05.649Z,100187.72
2022-07-28T23:25:33.839Z,100179.81
2022-07-28T23:28:02.822Z,100186.06
2022-07-28T23:30:32.531Z,100191.06
2022-07-28T23:33:00.316Z,100189.56
2022-07-28T23:35:28.351Z,100182.84
2022-07-28T23:37:56.173Z,100188.25
2022-07-28T23:40:25.568Z,100194.91
2022-07-28T23:42:53.309Z,100205.34
2022-07-28T23:45:22.930Z,100203.22
2022-07-28T23:47:53.879Z,100204.22
2022-07-28T23:50:24.673Z,100209.63
2022-07-28T23:52:52.518Z,100202.09
2022-07-28T23:55:20.416Z,100197.91
2022-07-28T23:57:50.345Z,100205.00
